sensor_id;sensor_type;location;lat;lon;timestamp;pressure;altitude;pressure_sealevel;temperature;humidity
49843;BME280;55559;48.898;9.184;2022-10-16T00:00:43;98312.13;;;15.32;100.00
49843;BME280;55559;48.898;9.184;2022-10-16T00:03:11;98304.75;;;15.42;100.00
49843;BME280;55559;48.898;9.184;2022-10-16T00:05:39;98304.75;;;15.42;100.00
49843;BME280;55559;48.898;9.184;2022-10-16T00:08:08;98304.25;;;15.39;100.00
49843;BME280;55559;48.898;9.184;2022-10-16T00:10:37;98290.19;;;15.37;100.00
49843;BME280;55559;48.898;9.184;2022-10-16T00:13:05;98294.91;;;15.35;100.00
49843;BME280;55559;48.898;9.184;2022-10-16T00:15:33;98291.53;;;15.33;100.00
49843;BME280;55559;48.898;9.184;2022-10-16T00:18:02;98293.53;;;15.31;100.00
49843;BME280;55559;48.898;9.184;2022-10-16T00:20:29;98292.56;;;15.32;100.00
49843;BME280;55559;48.898;9.184;2022-10-16T00:22:59;98298.56;;;15.34;100.00
49843;BME280;55559;48.898;9.184;2022-10-16T00:25:26;98295.06;;;15.33;100.00
49843;BME280;55559;48.898;9.184;2022-10-16T00:27:55;98289.00;;;15.31;100.00
49843;BME280;55559;48.898;9.184;2022-10-16T00:30:22;98289.38;;;15.28;100.00
49843;BME280;55559;48.898;9.184;2022-10-16T00:32:52;98301.44;;;15.24;100.00
49843;BME280;55559;48.898;9.184;2022-10-16T00:35:19;98294.41;;;15.23;100.00
49843;BME280;55559;48.898;9.184;2022-10-16T00:37:47;98299.41;;;15.26;100.00
49843;BME280;55559;48.898;9.184;2022-10-16T00:40:14;98301.75;;;15.29;100.00
49843;BME280;55559;48.898;9.184;2022-10-16T00:42:42;98300.09;;;15.28;100.00
49843;BME280;55559;48.898;9.184;2022-10-16T00:45:11;98308.63;;;15.32;100.00
49843;BME280;55559;48.898;9.184;2022-10-16T00:47:43;98306.78;;;15.32;100.00
49843;BME280;55559;48.898;9.184;2022-10-16T00:50:20;98317.97;;;15.36;100.00
49843;BME280;55559;48.898;9.184;2022-10-16T00:52:50;98306.09;;;15.38;100.00
49843;BME280;55559;48.898;9.184;2022-10-16T00:55:19;98297.41;;;15.36;100.00
49843;BME280;55559;48.898;9.184;2022-10-16T00:57:46;98304.41;;;15.37;100.00
49843;BME280;55559;48.898;9.184;2022-10-16T01:00:21;98299.72;;;15.39;100.00
49843;BME280;55559;48.898;9.184;2022-10-16T01:02:53;98304.09;;;15.40;100.00
49843;BME280;55559;48.898;9.184;2022-10-16T01:05:22;98307.56;;;15.49;100.00
49843;BME280;55559;48.898;9.184;2022-10-16T01:07:56;98309.41;;;15.57;100.00
49843;BME280;55559;48.898;9.184;2022-10-16T01:10:35;98317.28;;;15.58;100.00
49843;BME280;55559;48.898;9.184;2022-10-16T01:13:07;98323.47;;;15.59;100.00
49843;BME280;55559;48.898;9.184;2022-10-16T01:15:40;98315.25;;;15.60;100.00
49843;BME280;55559;48.898;9.184;2022-10-16T01:18:13;98312.75;;;15.59;100.00
49843;BME280;55559;48.898;9.184;2022-10-16T01:20:45;98314.94;;;15.55;100.00
49843;BME280;55559;48.898;9.184;2022-10-16T01:23:21;98315.75;;;15.56;100.00
49843;BME280;55559;48.898;9.184;2022-10-16T01:28:51;98310.56;;;15.54;100.00
49843;BME280;55559;48.898;9.184;2022-10-16T01:31:23;98308.59;;;15.48;100.00
49843;BME280;55559;48.898;9.184;2022-10-16T01:33:55;98315.94;;;15.46;100.00
49843;BME280;55559;48.898;9.184;2022-10-16T01:36:28;98321.47;;;15.44;100.00
49843;BME280;55559;48.898;9.184;2022-10-16T01:39:00;98313.25;;;15.46;100.00
49843;BME280;55559;48.898;9.184;2022-10-16T01:41:31;98321.84;;;15.41;100.00
49843;BME280;55559;48.898;9.184;2022-10-16T01:44:05;98313.97;;;15.40;100.00
49843;BME280;55559;48.898;9.184;2022-10-16T01:46:38;98317.66;;;15.39;100.00
49843;BME280;55559;48.898;9.184;2022-10-16T01:49:09;98308.94;;;15.45;100.00
49843;BME280;55559;48.898;9.184;2022-10-16T01:51:38;98299.69;;;15.48;100.00
49843;BME280;55559;48.898;9.184;2022-10-16T01:54:08;98305.41;;;15.44;100.00
49843;BME280;55559;48.898;9.184;2022-10-16T01:56:37;98304.75;;;15.42;100.00
49843;BME280;55559;48.898;9.184;2022-10-16T01:59:12;98299.53;;;15.41;100.00
49843;BME280;55559;48.898;9.184;2022-10-16T02:01:44;98296.38;;;15.37;100.00
49843;BME280;55559;48.898;9.184;2022-10-16T02:04:15;98287.34;;;15.38;100.00
49843;BME280;55559;48.898;9.184;2022-10-16T02:06:45;98295.88;;;15.42;100.00
49843;BME280;55559;48.898;9.184;2022-10-16T02:09:13;98304.09;;;15.40;100.00
49843;BME280;55559;48.898;9.184;2022-10-16T02:11:42;98291.84;;;15.46;100.00
49843;BME280;55559;48.898;9.184;2022-10-16T02:14:13;98297.88;;;15.48;100.00
49843;BME280;55559;48.898;9.184;2022-10-16T02:16:42;98304.06;;;15.49;100.00
49843;BME280;55559;48.898;9.184;2022-10-16T02:19:12;98304.06;;;15.49;100.00
49843;BME280;55559;48.898;9.184;2022-10-16T02:21:44;98300.56;;;15.48;100.00
49843;BME280;55559;48.898;9.184;2022-10-16T02:24:19;98304.22;;;15.47;100.00
49843;BME280;55559;48.898;9.184;2022-10-16T02:26:51;98310.09;;;15.51;100.00
49843;BME280;55559;48.898;9.184;2022-10-16T02:29:24;98305.91;;;15.48;100.00
49843;BME280;55559;48.898;9.184;2022-10-16T02:31:55;98298.19;;;15.53;100.00
49843;BME280;55559;48.898;9.184;2022-10-16T02:34:26;98308.22;;;15.51;100.00
49843;BME280;55559;48.898;9.184;2022-10-16T02:36:56;98302.03;;;15.51;100.00
49843;BME280;55559;48.898;9.184;2022-10-16T02:39:25;98308.53;;;15.56;100.00
49843;BME280;55559;48.898;9.184;2022-10-16T02:41:54;98309.41;;;15.57;100.00
49843;BME280;55559;48.898;9.184;2022-10-16T02:44:23;98308.91;;;15.53;100.00
49843;BME280;55559;48.898;9.184;2022-10-16T02:46:50;98304.06;;;15.49;100.00
49843;BME280;55559;48.898;9.184;2022-10-16T02:49:18;98317.13;;;15.52;100.00
49843;BME280;55559;48.898;9.184;2022-10-16T02:51:45;98325.84;;;15.46;100.00
49843;BME280;55559;48.898;9.184;2022-10-16T02:54:12;98318.97;;;15.43;100.00
49843;BME280;55559;48.898;9.184;2022-10-16T02:56:40;98316.47;;;15.41;100.00
49843;BME280;55559;48.898;9.184;2022-10-16T02:59:07;98311.63;;;15.37;100.00
49843;BME280;55559;48.898;9.184;2022-10-16T03:01:36;98320.84;;;15.34;100.00
49843;BME280;55559;48.898;9.184;2022-10-16T03:04:03;98317.97;;;15.36;100.00
49843;BME280;55559;48.898;9.184;2022-10-16T03:06:31;98322.19;;;15.38;100.00
49843;BME280;55559;48.898;9.184;2022-10-16T03:08:58;98326.34;;;15.33;100.00
49843;BME280;55559;48.898;9.184;2022-10-16T03:11:25;98325.69;;;15.31;100.00
49843;BME280;55559;48.898;9.184;2022-10-16T03:13:54;98327.22;;;15.25;100.00
49843;BME280;55559;48.898;9.184;2022-10-16T03:16:21;98330.22;;;15.22;100.00
49843;BME280;55559;48.898;9.184;2022-10-16T03:18:50;98336.75;;;15.19;100.00
49843;BME280;55559;48.898;9.184;2022-10-16T03:21:17;98334.59;;;15.15;100.00
49843;BME280;55559;48.898;9.184;2022-10-16T03:23:45;98322.22;;;15.14;100.00
49843;BME280;55559;48.898;9.184;2022-10-16T03:26:12;98328.06;;;15.09;100.00
49843;BME280;55559;48.898;9.184;2022-10-16T03:28:39;98326.41;;;15.08;100.00
49843;BME280;55559;48.898;9.184;2022-10-16T03:31:07;98332.91;;;15.14;100.00
49843;BME280;55559;48.898;9.184;2022-10-16T03:33:34;98333.09;;;15.12;100.00
49843;BME280;55559;48.898;9.184;2022-10-16T03:36:03;98334.44;;;15.08;100.00
49843;BME280;55559;48.898;9.184;2022-10-16T03:38:31;98328.06;;;15.01;100.00
49843;BME280;55559;48.898;9.184;2022-10-16T03:40:58;98331.09;;;14.98;100.00
49843;BME280;55559;48.898;9.184;2022-10-16T03:43:25;98337.63;;;14.95;100.00
49843;BME280;55559;48.898;9.184;2022-10-16T03:45:53;98344.50;;;14.90;100.00
49843;BME280;55559;48.898;9.184;2022-10-16T03:48:20;98340.13;;;14.88;100.00
49843;BME280;55559;48.898;9.184;2022-10-16T03:50:48;98333.13;;;14.87;100.00
49843;BME280;55559;48.898;9.184;2022-10-16T03:53:18;98335.59;;;14.89;100.00
49843;BME280;55559;48.898;9.184;2022-10-16T03:55:45;98334.78;;;14.88;100.00
49843;BME280;55559;48.898;9.184;2022-10-16T03:58:13;98341.47;;;14.84;100.00
49843;BME280;55559;48.898;9.184;2022-10-16T04:00:41;98340.28;;;14.87;100.00
49843;BME280;55559;48.898;9.184;2022-10-16T04:03:08;98332.44;;;14.94;100.00
49843;BME280;55559;48.898;9.184;2022-10-16T04:05:36;98329.75;;;14.94;100.00
49843;BME280;55559;48.898;9.184;2022-10-16T04:08:03;98332.44;;;14.94;100.00
49843;BME280;55559;48.898;9.184;2022-10-16T04:10:32;98341.81;;;14.90;100.00
49843;BME280;55559;48.898;9.184;2022-10-16T04:13:00;98345.00;;;14.93;100.00
49843;BME280;55559;48.898;9.184;2022-10-16T04:15:27;98340.28;;;14.87;100.00
49843;BME280;55559;48.898;9.184;2022-10-16T04:17:54;98334.78;;;14.88;100.00
49843;BME280;55559;48.898;9.184;2022-10-16T04:20:22;98343.13;;;14.85;100.00
49843;BME280;55559;48.898;9.184;2022-10-16T04:22:49;98341.81;;;14.81;100.00
49843;BME280;55559;48.898;9.184;2022-10-16T04:25:17;98344.81;;;14.78;100.00
49843;BME280;55559;48.898;9.184;2022-10-16T04:27:45;98347.47;;;14.78;100.00
49843;BME280;55559;48.898;9.184;2022-10-16T04:30:13;98342.13;;;14.78;100.00
49843;BME280;55559;48.898;9.184;2022-10-16T04:32:41;98347.81;;;14.75;100.00
49843;BME280;55559;48.898;9.184;2022-10-16T04:35:08;98345.31;;;14.82;100.00
49843;BME280;55559;48.898;9.184;2022-10-16T04:37:36;98354.34;;;14.81;100.00
49843;BME280;55559;48.898;9.184;2022-10-16T04:40:04;98352.50;;;14.81;100.00
49843;BME280;55559;48.898;9.184;2022-10-16T04:42:32;98354.69;;;14.78;100.00
49843;BME280;55559;48.898;9.184;2022-10-16T04:45:01;98363.72;;;14.77;100.00
49843;BME280;55559;48.898;9.184;2022-10-16T04:47:28;98354.03;;;14.76;100.00
49843;BME280;55559;48.898;9.184;2022-10-16T04:49:56;98367.75;;;14.81;100.00
49843;BME280;55559;48.898;9.184;2022-10-16T04:52:25;98364.53;;;14.77;100.00
49843;BME280;55559;48.898;9.184;2022-10-16T04:54:52;98369.22;;;14.75;100.00
49843;BME280;55559;48.898;9.184;2022-10-16T04:57:22;98366.88;;;14.72;100.00
49843;BME280;55559;48.898;9.184;2022-10-16T04:59:49;98389.97;;;14.73;100.00
49843;BME280;55559;48.898;9.184;2022-10-16T05:02:18;98389.16;;;14.73;100.00
49843;BME280;55559;48.898;9.184;2022-10-16T05:04:45;98392.66;;;14.73;100.00
49843;BME280;55559;48.898;9.184;2022-10-16T05:07:13;98391.31;;;14.69;100.00
49843;BME280;55559;48.898;9.184;2022-10-16T05:09:40;98388.31;;;14.64;100.00
49843;BME280;55559;48.898;9.184;2022-10-16T05:12:08;98397.63;;;14.60;100.00
49843;BME280;55559;48.898;9.184;2022-10-16T05:14:35;98399.78;;;14.56;100.00
49843;BME280;55559;48.898;9.184;2022-10-16T05:17:03;98398.59;;;14.50;100.00
49843;BME280;55559;48.898;9.184;2022-10-16T05:19:31;98398.41;;;14.44;100.00
49843;BME280;55559;48.898;9.184;2022-10-16T05:21:59;98389.03;;;14.40;100.00
49843;BME280;55559;48.898;9.184;2022-10-16T05:24:26;98391.50;;;14.33;100.00
49843;BME280;55559;48.898;9.184;2022-10-16T05:26:54;98387.34;;;14.30;100.00
49843;BME280;55559;48.898;9.184;2022-10-16T05:29:22;98388.66;;;14.26;100.00
49843;BME280;55559;48.898;9.184;2022-10-16T05:31:52;98396.66;;;14.26;100.00
49843;BME280;55559;48.898;9.184;2022-10-16T05:34:20;98392.34;;;14.25;100.00
49843;BME280;55559;48.898;9.184;2022-10-16T05:36:49;98397.84;;;14.24;100.00
49843;BME280;55559;48.898;9.184;2022-10-16T05:39:16;98412.69;;;14.18;100.00
49843;BME280;55559;48.898;9.184;2022-10-16T05:41:44;98406.81;;;14.14;100.00
49843;BME280;55559;48.898;9.184;2022-10-16T05:44:15;98414.16;;;14.12;100.00
49843;BME280;55559;48.898;9.184;2022-10-16T05:46:43;98407.31;;;14.10;100.00
49843;BME280;55559;48.898;9.184;2022-10-16T05:49:10;98416.50;;;14.07;100.00
49843;BME280;55559;48.898;9.184;2022-10-16T05:51:38;98413.31;;;14.04;100.00
49843;BME280;55559;48.898;9.184;2022-10-16T05:54:07;98434.03;;;14.02;100.00
49843;BME280;55559;48.898;9.184;2022-10-16T05:56:34;98431.19;;;14.03;100.00
49843;BME280;55559;48.898;9.184;2022-10-16T05:59:03;98428.50;;;14.03;100.00
49843;BME280;55559;48.898;9.184;2022-10-16T06:01:30;98437.38;;;14.04;100.00
49843;BME280;55559;48.898;9.184;2022-10-16T06:04:01;98440.19;;;14.02;100.00
49843;BME280;55559;48.898;9.184;2022-10-16T06:06:29;98440.72;;;14.06;100.00
49843;BME280;55559;48.898;9.184;2022-10-16T06:08:57;98440.72;;;14.06;100.00
49843;BME280;55559;48.898;9.184;2022-10-16T06:11:28;98443.91;;;14.09;100.00
49843;BME280;55559;48.898;9.184;2022-10-16T06:13:59;98433.91;;;14.20;100.00
49843;BME280;55559;48.898;9.184;2022-10-16T06:16:28;98434.97;;;14.27;100.00
49843;BME280;55559;48.898;9.184;2022-10-16T06:18:56;98433.00;;;14.37;100.00
49843;BME280;55559;48.898;9.184;2022-10-16T06:21:26;98435.34;;;14.40;100.00
49843;BME280;55559;48.898;9.184;2022-10-16T06:23:55;98442.53;;;14.40;100.00
49843;BME280;55559;48.898;9.184;2022-10-16T06:26:24;98427.16;;;14.42;100.00
49843;BME280;55559;48.898;9.184;2022-10-16T06:28:54;98433.88;;;14.46;100.00
49843;BME280;55559;48.898;9.184;2022-10-16T06:31:22;98427.00;;;14.51;100.00
49843;BME280;55559;48.898;9.184;2022-10-16T06:33:53;98428.75;;;14.61;100.00
49843;BME280;55559;48.898;9.184;2022-10-16T06:36:22;98433.28;;;14.68;100.00
49843;BME280;55559;48.898;9.184;2022-10-16T06:38:50;98432.47;;;14.76;100.00
49843;BME280;55559;48.898;9.184;2022-10-16T06:41:19;98427.47;;;14.90;100.00
49843;BME280;55559;48.898;9.184;2022-10-16T06:43:47;98428.63;;;14.87;100.00
49843;BME280;55559;48.898;9.184;2022-10-16T06:46:18;98437.88;;;14.93;100.00
49843;BME280;55559;48.898;9.184;2022-10-16T06:48:47;98436.34;;;14.98;100.00
49843;BME280;55559;48.898;9.184;2022-10-16T06:51:15;98451.25;;;15.01;100.00
49843;BME280;55559;48.898;9.184;2022-10-16T06:53:44;98452.25;;;15.00;100.00
49843;BME280;55559;48.898;9.184;2022-10-16T06:56:14;98453.28;;;15.07;100.00
49843;BME280;55559;48.898;9.184;2022-10-16T06:58:43;98466.34;;;15.10;100.00
49843;BME280;55559;48.898;9.184;2022-10-16T07:01:11;98461.31;;;15.15;100.00
49843;BME280;55559;48.898;9.184;2022-10-16T07:03:41;98464.19;;;15.30;100.00
49843;BME280;55559;48.898;9.184;2022-10-16T07:06:10;98467.34;;;15.34;100.00
49843;BME280;55559;48.898;9.184;2022-10-16T07:08:40;98468.03;;;15.36;100.00
49843;BME280;55559;48.898;9.184;2022-10-16T07:11:10;98467.38;;;15.42;100.00
49843;BME280;55559;48.898;9.184;2022-10-16T07:13:39;98469.53;;;15.38;100.00
49843;BME280;55559;48.898;9.184;2022-10-16T07:16:07;98480.25;;;15.38;100.00
49843;BME280;55559;48.898;9.184;2022-10-16T07:18:35;98477.41;;;15.40;100.00
49843;BME280;55559;48.898;9.184;2022-10-16T07:21:07;98483.78;;;15.39;100.00
49843;BME280;55559;48.898;9.184;2022-10-16T07:23:35;98500.00;;;15.46;100.00
49843;BME280;55559;48.898;9.184;2022-10-16T07:26:04;98494.81;;;15.44;100.00
49843;BME280;55559;48.898;9.184;2022-10-16T07:28:32;98496.66;;;15.43;100.00
49843;BME280;55559;48.898;9.184;2022-10-16T07:31:01;98496.84;;;15.42;100.00
49843;BME280;55559;48.898;9.184;2022-10-16T07:33:29;98501.53;;;15.40;100.00
49843;BME280;55559;48.898;9.184;2022-10-16T07:35:56;98512.09;;;15.41;100.00
49843;BME280;55559;48.898;9.184;2022-10-16T07:38:25;98506.88;;;15.40;100.00
49843;BME280;55559;48.898;9.184;2022-10-16T07:40:57;98514.22;;;15.38;100.00
49843;BME280;55559;48.898;9.184;2022-10-16T07:43:25;98506.19;;;15.46;100.00
49843;BME280;55559;48.898;9.184;2022-10-16T07:45:53;98502.84;;;15.44;100.00
49843;BME280;55559;48.898;9.184;2022-10-16T07:48:21;98509.91;;;15.45;100.00
49843;BME280;55559;48.898;9.184;2022-10-16T07:50:49;98503.69;;;15.44;100.00
49843;BME280;55559;48.898;9.184;2022-10-16T07:53:16;98509.56;;;15.56;100.00
49843;BME280;55559;48.898;9.184;2022-10-16T07:55:45;98495.31;;;15.72;100.00
49843;BME280;55559;48.898;9.184;2022-10-16T07:58:13;98514.78;;;15.83;100.00
49843;BME280;55559;48.898;9.184;2022-10-16T08:00:40;98511.22;;;15.98;100.00
49843;BME280;55559;48.898;9.184;2022-10-16T08:03:08;98515.59;;;16.16;100.00
49843;BME280;55559;48.898;9.184;2022-10-16T08:05:35;98505.81;;;16.23;100.00
49843;BME280;55559;48.898;9.184;2022-10-16T08:08:03;98510.50;;;16.38;100.00
49843;BME280;55559;48.898;9.184;2022-10-16T08:10:30;98508.75;;;16.53;100.00
49843;BME280;55559;48.898;9.184;2022-10-16T08:12:59;98506.94;;;16.45;100.00
49843;BME280;55559;48.898;9.184;2022-10-16T08:15:26;98506.41;;;16.50;100.00
49843;BME280;55559;48.898;9.184;2022-10-16T08:17:55;98505.50;;;16.66;100.00
49843;BME280;55559;48.898;9.184;2022-10-16T08:20:23;98511.63;;;16.83;100.00
49843;BME280;55559;48.898;9.184;2022-10-16T08:22:50;98513.41;;;17.07;100.00
49843;BME280;55559;48.898;9.184;2022-10-16T08:25:18;98501.88;;;17.21;100.00
49843;BME280;55559;48.898;9.184;2022-10-16T08:27:45;98509.81;;;17.15;100.00
49843;BME280;55559;48.898;9.184;2022-10-16T08:30:15;98513.53;;;17.37;100.00
49843;BME280;55559;48.898;9.184;2022-10-16T08:32:42;98518.13;;;17.51;100.00
49843;BME280;55559;48.898;9.184;2022-10-16T08:35:11;98517.66;;;17.47;100.00
49843;BME280;55559;48.898;9.184;2022-10-16T08:37:39;98530.53;;;17.52;100.00
49843;BME280;55559;48.898;9.184;2022-10-16T08:40:15;98529.84;;;17.58;100.00
49843;BME280;55559;48.898;9.184;2022-10-16T08:42:54;98520.72;;;17.67;100.00
49843;BME280;55559;48.898;9.184;2022-10-16T08:45:34;98532.16;;;17.84;100.00
49843;BME280;55559;48.898;9.184;2022-10-16T08:48:18;98529.59;;;17.91;100.00
49843;BME280;55559;48.898;9.184;2022-10-16T08:50:48;98527.47;;;17.87;100.00
49843;BME280;55559;48.898;9.184;2022-10-16T08:53:20;98521.16;;;17.94;100.00
49843;BME280;55559;48.898;9.184;2022-10-16T08:55:51;98518.66;;;18.08;100.00
49843;BME280;55559;48.898;9.184;2022-10-16T08:58:22;98523.88;;;18.09;100.00
49843;BME280;55559;48.898;9.184;2022-10-16T09:00:54;98519.25;;;18.03;100.00
49843;BME280;55559;48.898;9.184;2022-10-16T09:03:37;98519.34;;;18.10;100.00
49843;BME280;55559;48.898;9.184;2022-10-16T09:06:29;98519.63;;;18.15;100.00
49843;BME280;55559;48.898;9.184;2022-10-16T09:11:54;98523.41;;;18.06;100.00
49843;BME280;55559;48.898;9.184;2022-10-16T09:14:40;98530.66;;;18.05;100.00
49843;BME280;55559;48.898;9.184;2022-10-16T09:17:22;98533.28;;;18.13;100.00
49843;BME280;55559;48.898;9.184;2022-10-16T09:19:54;98541.09;;;18.23;100.00
49843;BME280;55559;48.898;9.184;2022-10-16T09:22:27;98541.63;;;18.48;100.00
49843;BME280;55559;48.898;9.184;2022-10-16T09:24:59;98532.53;;;18.49;100.00
49843;BME280;55559;48.898;9.184;2022-10-16T09:27:27;98547.97;;;18.55;100.00
49843;BME280;55559;48.898;9.184;2022-10-16T09:29:56;98549.72;;;18.63;100.00
49843;BME280;55559;48.898;9.184;2022-10-16T09:32:25;98555.84;;;18.57;100.00
49843;BME280;55559;48.898;9.184;2022-10-16T09:34:55;98547.19;;;18.76;100.00
49843;BME280;55559;48.898;9.184;2022-10-16T09:37:24;98561.97;;;18.81;100.00
49843;BME280;55559;48.898;9.184;2022-10-16T09:39:54;98563.56;;;18.90;100.00
49843;BME280;55559;48.898;9.184;2022-10-16T09:42:23;98572.28;;;19.07;100.00
49843;BME280;55559;48.898;9.184;2022-10-16T09:44:54;98570.56;;;19.21;100.00
49843;BME280;55559;48.898;9.184;2022-10-16T09:47:25;98571.06;;;19.46;100.00
49843;BME280;55559;48.898;9.184;2022-10-16T09:49:54;98562.97;;;19.67;100.00
49843;BME280;55559;48.898;9.184;2022-10-16T09:52:24;98563.75;;;19.61;100.00
49843;BME280;55559;48.898;9.184;2022-10-16T09:54:52;98559.78;;;20.00;100.00
49843;BME280;55559;48.898;9.184;2022-10-16T09:57:22;98564.59;;;20.05;100.00
49843;BME280;55559;48.898;9.184;2022-10-16T09:59:50;98576.28;;;20.40;100.00
49843;BME280;55559;48.898;9.184;2022-10-16T10:02:20;98569.28;;;20.18;100.00
49843;BME280;55559;48.898;9.184;2022-10-16T10:04:53;98577.91;;;20.35;100.00
49843;BME280;55559;48.898;9.184;2022-10-16T10:07:24;98589.44;;;20.22;100.00
49843;BME280;55559;48.898;9.184;2022-10-16T10:09:53;98590.03;;;20.17;100.00
49843;BME280;55559;48.898;9.184;2022-10-16T10:12:23;98588.31;;;20.10;100.00
49843;BME280;55559;48.898;9.184;2022-10-16T10:14:52;98591.38;;;20.06;100.00
49843;BME280;55559;48.898;9.184;2022-10-16T10:17:21;98591.94;;;20.23;100.00
49843;BME280;55559;48.898;9.184;2022-10-16T10:19:53;98587.09;;;20.69;100.00
49843;BME280;55559;48.898;9.184;2022-10-16T10:22:29;98586.03;;;20.98;100.00
49843;BME280;55559;48.898;9.184;2022-10-16T10:25:07;98585.72;;;21.34;100.00
49843;BME280;55559;48.898;9.184;2022-10-16T10:27:47;98593.31;;;21.52;100.00
49843;BME280;55559;48.898;9.184;2022-10-16T10:30:23;98575.03;;;21.68;100.00
49843;BME280;55559;48.898;9.184;2022-10-16T10:33:07;98584.72;;;21.42;100.00
49843;BME280;55559;48.898;9.184;2022-10-16T10:35:44;98588.78;;;21.73;100.00
49843;BME280;55559;48.898;9.184;2022-10-16T10:38:30;98594.84;;;21.88;100.00
49843;BME280;55559;48.898;9.184;2022-10-16T10:41:09;98587.97;;;21.92;100.00
49843;BME280;55559;48.898;9.184;2022-10-16T10:43:53;98597.56;;;22.22;100.00
49843;BME280;55559;48.898;9.184;2022-10-16T10:46:31;98587.97;;;22.26;100.00
49843;BME280;55559;48.898;9.184;2022-10-16T10:49:24;98587.59;;;22.36;100.00
49843;BME280;55559;48.898;9.184;2022-10-16T10:52:13;98588.38;;;22.56;100.00
49843;BME280;55559;48.898;9.184;2022-10-16T10:54:52;98585.84;;;22.75;100.00
49843;BME280;55559;48.898;9.184;2022-10-16T10:57:30;98585.84;;;23.40;100.00
49843;BME280;55559;48.898;9.184;2022-10-16T11:00:10;98588.16;;;23.75;100.00
49843;BME280;55559;48.898;9.184;2022-10-16T11:02:48;98592.16;;;24.04;100.00
49843;BME280;55559;48.898;9.184;2022-10-16T11:05:37;98584.66;;;24.25;100.00
49843;BME280;55559;48.898;9.184;2022-10-16T11:08:11;98582.75;;;24.07;100.00
49843;BME280;55559;48.898;9.184;2022-10-16T11:10:48;98590.44;;;24.35;100.00
49843;BME280;55559;48.898;9.184;2022-10-16T11:13:31;98584.22;;;24.28;100.00
49843;BME280;55559;48.898;9.184;2022-10-16T11:16:12;98578.47;;;24.18;100.00
49843;BME280;55559;48.898;9.184;2022-10-16T11:18:47;98575.34;;;23.89;100.00
49843;BME280;55559;48.898;9.184;2022-10-16T11:21:19;98575.13;;;23.90;100.00
49843;BME280;55559;48.898;9.184;2022-10-16T11:23:53;98574.16;;;23.78;100.00
49843;BME280;55559;48.898;9.184;2022-10-16T11:26:27;98568.16;;;23.63;100.00
49843;BME280;55559;48.898;9.184;2022-10-16T11:28:56;98568.59;;;23.66;100.00
49843;BME280;55559;48.898;9.184;2022-10-16T11:31:32;98571.38;;;23.53;100.00
49843;BME280;55559;48.898;9.184;2022-10-16T11:34:08;98572.84;;;23.49;100.00
49843;BME280;55559;48.898;9.184;2022-10-16T11:36:45;98571.19;;;23.86;100.00
49843;BME280;55559;48.898;9.184;2022-10-16T11:39:19;98564.31;;;23.84;100.00
49843;BME280;55559;48.898;9.184;2022-10-16T11:41:49;98561.66;;;23.70;100.00
49843;BME280;55559;48.898;9.184;2022-10-16T11:44:33;98572.38;;;23.97;98.97
49843;BME280;55559;48.898;9.184;2022-10-16T11:47:16;98575.91;;;23.98;100.00
49843;BME280;55559;48.898;9.184;2022-10-16T11:49:47;98577.81;;;23.97;100.00
49843;BME280;55559;48.898;9.184;2022-10-16T11:52:24;98575.13;;;23.52;97.86
49843;BME280;55559;48.898;9.184;2022-10-16T11:54:59;98581.06;;;23.74;100.00
49843;BME280;55559;48.898;9.184;2022-10-16T11:57:32;98581.75;;;23.63;97.96
49843;BME280;55559;48.898;9.184;2022-10-16T12:00:05;98579.72;;;23.58;93.93
49843;BME280;55559;48.898;9.184;2022-10-16T12:02:50;98565.91;;;23.59;95.04
49843;BME280;55559;48.898;9.184;2022-10-16T12:05:31;98574.22;;;24.03;93.87
49843;BME280;55559;48.898;9.184;2022-10-16T12:08:08;98569.72;;;24.16;88.00
49843;BME280;55559;48.898;9.184;2022-10-16T12:10:40;98570.69;;;23.96;92.45
49843;BME280;55559;48.898;9.184;2022-10-16T12:13:29;98569.84;;;23.64;94.42
49843;BME280;55559;48.898;9.184;2022-10-16T12:16:20;98569.50;;;23.53;96.18
49843;BME280;55559;48.898;9.184;2022-10-16T12:18:48;98575.13;;;23.13;98.45
49843;BME280;55559;48.898;9.184;2022-10-16T12:21:17;98570.44;;;22.75;100.00
49843;BME280;55559;48.898;9.184;2022-10-16T12:23:49;98560.09;;;22.32;100.00
49843;BME280;55559;48.898;9.184;2022-10-16T12:26:26;98569.88;;;22.53;100.00
49843;BME280;55559;48.898;9.184;2022-10-16T12:28:56;98569.63;;;22.61;100.00
49843;BME280;55559;48.898;9.184;2022-10-16T12:31:42;98569.22;;;22.58;100.00
49843;BME280;55559;48.898;9.184;2022-10-16T12:34:21;98559.25;;;22.38;100.00
49843;BME280;55559;48.898;9.184;2022-10-16T12:36:50;98559.25;;;22.38;100.00
49843;BME280;55559;48.898;9.184;2022-10-16T12:39:22;98570.50;;;22.48;100.00
49843;BME280;55559;48.898;9.184;2022-10-16T12:42:02;98555.84;;;22.63;100.00
49843;BME280;55559;48.898;9.184;2022-10-16T12:44:34;98559.00;;;22.60;100.00
49843;BME280;55559;48.898;9.184;2022-10-16T12:47:02;98567.75;;;22.62;100.00
49843;BME280;55559;48.898;9.184;2022-10-16T12:49:35;98569.78;;;22.73;100.00
49843;BME280;55559;48.898;9.184;2022-10-16T12:52:04;98568.28;;;22.97;100.00
49843;BME280;55559;48.898;9.184;2022-10-16T12:54:35;98573.16;;;22.69;100.00
49843;BME280;55559;48.898;9.184;2022-10-16T12:57:34;98575.66;;;22.70;100.00
49843;BME280;55559;48.898;9.184;2022-10-16T13:00:13;98573.38;;;22.60;100.00
49843;BME280;55559;48.898;9.184;2022-10-16T13:02:59;98580.25;;;22.56;100.00
49843;BME280;55559;48.898;9.184;2022-10-16T13:05:39;98578.19;;;22.58;100.00
49843;BME280;55559;48.898;9.184;2022-10-16T13:08:26;98584.81;;;22.76;100.00
49843;BME280;55559;48.898;9.184;2022-10-16T13:11:04;98585.47;;;22.58;100.00
49843;BME280;55559;48.898;9.184;2022-10-16T13:13:57;98590.25;;;22.62;100.00
49843;BME280;55559;48.898;9.184;2022-10-16T13:16:39;98587.31;;;22.84;100.00